0TX1 – Local Weather Observations

Pecan Plantation / Sawgrass Ct

This weather station is operated by a private user located just north of the field. See WeatherUnderground for the full data feed and other nearby stations.

Last updated:
2018-11-14 14:03:38 (8:03 am)

Temperature: 25.7 °F

Sunrise / Sunset: 6:58 am / 5:31 pm

Moonrise / Moonset: 12:48 pm / 11:35 pm

Winds gusting from the North at 5.0 mph

Nearby METARs

KGDJ 141355Z AUTO 00000KT 10SM CLR M03/M05 A3055 RMK AO2 T10301053

KCPT 141355Z AUTO 29006KT 10SM CLR M05/M06 A3053 RMK AO2

KFWS 141348Z 30004KT 10SM CLR M03/M06 A3054